sensor_id;sensor_type;location;lat;lon;timestamp;P1;durP1;ratioP1;P2;durP2;ratioP2
23718;SDS011;43322;52.230;5.702;2022-08-19T00:01:21;7.15;;;6.63;;
23718;SDS011;43322;52.230;5.702;2022-08-19T00:03:49;7.95;;;7.45;;
23718;SDS011;43322;52.230;5.702;2022-08-19T00:06:16;8.02;;;7.43;;
23718;SDS011;43322;52.230;5.702;2022-08-19T00:08:43;8.10;;;7.55;;
23718;SDS011;43322;52.230;5.702;2022-08-19T00:11:10;9.75;;;8.80;;
23718;SDS011;43322;52.230;5.702;2022-08-19T00:13:37;9.07;;;8.40;;
23718;SDS011;43322;52.230;5.702;2022-08-19T00:16:06;9.55;;;8.65;;
23718;SDS011;43322;52.230;5.702;2022-08-19T00:18:33;9.57;;;8.30;;
23718;SDS011;43322;52.230;5.702;2022-08-19T00:21:01;9.45;;;8.75;;
23718;SDS011;43322;52.230;5.702;2022-08-19T00:23:28;9.38;;;8.45;;
23718;SDS011;43322;52.230;5.702;2022-08-19T00:25:55;10.02;;;8.82;;
23718;SDS011;43322;52.230;5.702;2022-08-19T00:28:22;8.88;;;8.07;;
23718;SDS011;43322;52.230;5.702;2022-08-19T00:30:48;8.88;;;8.10;;
23718;SDS011;43322;52.230;5.702;2022-08-19T00:33:18;8.75;;;8.05;;
23718;SDS011;43322;52.230;5.702;2022-08-19T00:35:45;8.77;;;8.10;;
23718;SDS011;43322;52.230;5.702;2022-08-19T00:38:11;9.77;;;8.80;;
23718;SDS011;43322;52.230;5.702;2022-08-19T00:40:38;9.65;;;8.75;;
23718;SDS011;43322;52.230;5.702;2022-08-19T00:43:08;10.55;;;9.75;;
23718;SDS011;43322;52.230;5.702;2022-08-19T00:45:40;11.60;;;9.68;;
23718;SDS011;43322;52.230;5.702;2022-08-19T00:48:08;9.68;;;8.85;;
23718;SDS011;43322;52.230;5.702;2022-08-19T00:50:36;9.68;;;8.88;;
23718;SDS011;43322;52.230;5.702;2022-08-19T00:53:07;10.10;;;8.65;;
23718;SDS011;43322;52.230;5.702;2022-08-19T00:55:36;9.50;;;8.60;;
23718;SDS011;43322;52.230;5.702;2022-08-19T00:58:06;10.02;;;9.15;;
23718;SDS011;43322;52.230;5.702;2022-08-19T01:00:36;10.27;;;9.40;;
23718;SDS011;43322;52.230;5.702;2022-08-19T01:03:03;10.70;;;9.40;;
23718;SDS011;43322;52.230;5.702;2022-08-19T01:05:31;10.73;;;9.68;;
23718;SDS011;43322;52.230;5.702;2022-08-19T01:08:00;14.10;;;9.73;;
23718;SDS011;43322;52.230;5.702;2022-08-19T01:10:30;11.23;;;10.05;;
23718;SDS011;43322;52.230;5.702;2022-08-19T01:12:59;12.30;;;10.27;;
23718;SDS011;43322;52.230;5.702;2022-08-19T01:15:28;11.23;;;9.95;;
23718;SDS011;43322;52.230;5.702;2022-08-19T01:17:58;10.88;;;9.82;;
23718;SDS011;43322;52.230;5.702;2022-08-19T01:20:28;11.18;;;9.85;;
23718;SDS011;43322;52.230;5.702;2022-08-19T01:22:58;12.35;;;10.90;;
23718;SDS011;43322;52.230;5.702;2022-08-19T01:25:26;11.52;;;10.30;;
23718;SDS011;43322;52.230;5.702;2022-08-19T01:27:56;13.63;;;10.48;;
23718;SDS011;43322;52.230;5.702;2022-08-19T01:30:24;11.30;;;10.10;;
23718;SDS011;43322;52.230;5.702;2022-08-19T01:32:54;11.98;;;10.82;;
23718;SDS011;43322;52.230;5.702;2022-08-19T01:35:22;10.25;;;9.30;;
23718;SDS011;43322;52.230;5.702;2022-08-19T01:37:53;11.75;;;10.55;;
23718;SDS011;43322;52.230;5.702;2022-08-19T01:40:24;11.73;;;10.52;;
23718;SDS011;43322;52.230;5.702;2022-08-19T01:42:54;12.82;;;11.45;;
23718;SDS011;43322;52.230;5.702;2022-08-19T01:45:22;10.70;;;9.65;;
23718;SDS011;43322;52.230;5.702;2022-08-19T01:47:50;11.45;;;10.25;;
23718;SDS011;43322;52.230;5.702;2022-08-19T01:50:18;10.10;;;9.23;;
23718;SDS011;43322;52.230;5.702;2022-08-19T01:52:45;11.93;;;9.40;;
23718;SDS011;43322;52.230;5.702;2022-08-19T01:55:13;10.77;;;9.98;;
23718;SDS011;43322;52.230;5.702;2022-08-19T01:57:46;11.80;;;10.65;;
23718;SDS011;43322;52.230;5.702;2022-08-19T02:00:16;11.32;;;10.00;;
23718;SDS011;43322;52.230;5.702;2022-08-19T02:02:44;10.68;;;9.70;;
23718;SDS011;43322;52.230;5.702;2022-08-19T02:05:12;9.55;;;8.80;;
23718;SDS011;43322;52.230;5.702;2022-08-19T02:07:43;8.30;;;7.70;;
23718;SDS011;43322;52.230;5.702;2022-08-19T02:10:16;9.20;;;8.45;;
23718;SDS011;43322;52.230;5.702;2022-08-19T02:12:46;10.18;;;9.38;;
23718;SDS011;43322;52.230;5.702;2022-08-19T02:15:14;10.57;;;9.68;;
23718;SDS011;43322;52.230;5.702;2022-08-19T02:17:41;9.38;;;8.55;;
23718;SDS011;43322;52.230;5.702;2022-08-19T02:20:09;9.88;;;9.05;;
23718;SDS011;43322;52.230;5.702;2022-08-19T02:22:38;9.05;;;8.43;;
23718;SDS011;43322;52.230;5.702;2022-08-19T02:25:06;9.57;;;8.77;;
23718;SDS011;43322;52.230;5.702;2022-08-19T02:27:34;9.75;;;9.02;;
23718;SDS011;43322;52.230;5.702;2022-08-19T02:30:03;11.02;;;9.95;;
23718;SDS011;43322;52.230;5.702;2022-08-19T02:32:57;10.02;;;9.13;;
23718;SDS011;43322;52.230;5.702;2022-08-19T02:35:24;11.15;;;10.13;;
23718;SDS011;43322;52.230;5.702;2022-08-19T02:37:51;11.50;;;10.45;;
23718;SDS011;43322;52.230;5.702;2022-08-19T02:40:35;13.25;;;11.85;;
23718;SDS011;43322;52.230;5.702;2022-08-19T02:43:03;12.98;;;11.70;;
23718;SDS011;43322;52.230;5.702;2022-08-19T02:45:33;12.75;;;11.43;;
23718;SDS011;43322;52.230;5.702;2022-08-19T02:48:01;14.32;;;12.13;;
23718;SDS011;43322;52.230;5.702;2022-08-19T02:50:29;14.50;;;12.60;;
23718;SDS011;43322;52.230;5.702;2022-08-19T02:52:56;14.70;;;13.05;;
23718;SDS011;43322;52.230;5.702;2022-08-19T02:55:23;14.55;;;13.05;;
23718;SDS011;43322;52.230;5.702;2022-08-19T02:57:50;12.77;;;11.57;;
23718;SDS011;43322;52.230;5.702;2022-08-19T03:00:16;12.38;;;11.18;;
23718;SDS011;43322;52.230;5.702;2022-08-19T03:02:45;11.90;;;10.90;;
23718;SDS011;43322;52.230;5.702;2022-08-19T03:05:13;12.20;;;11.00;;
23718;SDS011;43322;52.230;5.702;2022-08-19T03:07:40;11.55;;;10.35;;
23718;SDS011;43322;52.230;5.702;2022-08-19T03:10:07;13.82;;;11.23;;
23718;SDS011;43322;52.230;5.702;2022-08-19T03:12:35;10.90;;;9.80;;
23718;SDS011;43322;52.230;5.702;2022-08-19T03:15:03;11.73;;;10.63;;
23718;SDS011;43322;52.230;5.702;2022-08-19T03:17:32;11.75;;;10.55;;
23718;SDS011;43322;52.230;5.702;2022-08-19T03:20:01;11.85;;;10.68;;
23718;SDS011;43322;52.230;5.702;2022-08-19T03:22:29;11.18;;;10.02;;
23718;SDS011;43322;52.230;5.702;2022-08-19T03:24:56;10.93;;;9.93;;
23718;SDS011;43322;52.230;5.702;2022-08-19T03:27:24;11.82;;;10.73;;
23718;SDS011;43322;52.230;5.702;2022-08-19T03:29:51;11.65;;;10.57;;
23718;SDS011;43322;52.230;5.702;2022-08-19T03:32:18;12.27;;;11.23;;
23718;SDS011;43322;52.230;5.702;2022-08-19T03:34:45;13.32;;;11.68;;
23718;SDS011;43322;52.230;5.702;2022-08-19T03:37:13;12.55;;;11.25;;
23718;SDS011;43322;52.230;5.702;2022-08-19T03:39:40;12.90;;;11.55;;
23718;SDS011;43322;52.230;5.702;2022-08-19T03:42:08;10.25;;;9.35;;
23718;SDS011;43322;52.230;5.702;2022-08-19T03:44:36;9.98;;;9.18;;
23718;SDS011;43322;52.230;5.702;2022-08-19T03:47:04;9.35;;;8.60;;
23718;SDS011;43322;52.230;5.702;2022-08-19T03:49:32;12.60;;;10.80;;
23718;SDS011;43322;52.230;5.702;2022-08-19T03:52:00;14.18;;;12.77;;
23718;SDS011;43322;52.230;5.702;2022-08-19T03:54:28;12.55;;;11.32;;
23718;SDS011;43322;52.230;5.702;2022-08-19T03:56:56;12.88;;;11.68;;
23718;SDS011;43322;52.230;5.702;2022-08-19T03:59:24;14.73;;;13.32;;
23718;SDS011;43322;52.230;5.702;2022-08-19T04:01:53;17.00;;;15.30;;
23718;SDS011;43322;52.230;5.702;2022-08-19T04:04:20;16.77;;;13.93;;
23718;SDS011;43322;52.230;5.702;2022-08-19T04:06:47;19.70;;;17.05;;
23718;SDS011;43322;52.230;5.702;2022-08-19T04:09:16;17.25;;;14.98;;
23718;SDS011;43322;52.230;5.702;2022-08-19T04:11:46;16.60;;;14.90;;
23718;SDS011;43322;52.230;5.702;2022-08-19T04:14:15;15.82;;;14.23;;
23718;SDS011;43322;52.230;5.702;2022-08-19T04:16:44;14.25;;;12.88;;
23718;SDS011;43322;52.230;5.702;2022-08-19T04:19:12;14.38;;;12.73;;
23718;SDS011;43322;52.230;5.702;2022-08-19T04:21:39;16.42;;;14.73;;
23718;SDS011;43322;52.230;5.702;2022-08-19T04:24:06;18.45;;;15.13;;
23718;SDS011;43322;52.230;5.702;2022-08-19T04:26:35;15.75;;;14.25;;
23718;SDS011;43322;52.230;5.702;2022-08-19T04:29:06;16.08;;;14.40;;
23718;SDS011;43322;52.230;5.702;2022-08-19T04:31:34;15.43;;;13.85;;
23718;SDS011;43322;52.230;5.702;2022-08-19T04:34:02;14.82;;;13.32;;
23718;SDS011;43322;52.230;5.702;2022-08-19T04:36:32;15.73;;;14.20;;
23718;SDS011;43322;52.230;5.702;2022-08-19T04:39:01;14.30;;;12.95;;
23718;SDS011;43322;52.230;5.702;2022-08-19T04:41:30;13.73;;;12.32;;
23718;SDS011;43322;52.230;5.702;2022-08-19T04:44:16;13.75;;;12.43;;
23718;SDS011;43322;52.230;5.702;2022-08-19T04:46:43;13.98;;;12.57;;
23718;SDS011;43322;52.230;5.702;2022-08-19T04:49:10;10.15;;;9.25;;
23718;SDS011;43322;52.230;5.702;2022-08-19T04:51:39;10.30;;;8.00;;
23718;SDS011;43322;52.230;5.702;2022-08-19T04:54:08;9.38;;;8.57;;
23718;SDS011;43322;52.230;5.702;2022-08-19T04:56:35;11.77;;;10.32;;
23718;SDS011;43322;52.230;5.702;2022-08-19T04:59:02;12.55;;;11.27;;
23718;SDS011;43322;52.230;5.702;2022-08-19T05:01:31;12.18;;;11.07;;
23718;SDS011;43322;52.230;5.702;2022-08-19T05:04:00;11.13;;;9.73;;
23718;SDS011;43322;52.230;5.702;2022-08-19T05:06:28;10.38;;;9.55;;
23718;SDS011;43322;52.230;5.702;2022-08-19T05:08:58;13.05;;;11.73;;
23718;SDS011;43322;52.230;5.702;2022-08-19T05:11:26;14.73;;;12.43;;
23718;SDS011;43322;52.230;5.702;2022-08-19T05:13:54;14.35;;;12.90;;
23718;SDS011;43322;52.230;5.702;2022-08-19T05:16:23;15.40;;;13.80;;
23718;SDS011;43322;52.230;5.702;2022-08-19T05:18:52;14.98;;;13.57;;
23718;SDS011;43322;52.230;5.702;2022-08-19T05:21:36;15.95;;;14.45;;
23718;SDS011;43322;52.230;5.702;2022-08-19T05:24:22;18.10;;;15.05;;
23718;SDS011;43322;52.230;5.702;2022-08-19T05:26:50;16.88;;;14.50;;
23718;SDS011;43322;52.230;5.702;2022-08-19T05:29:21;16.90;;;14.75;;
23718;SDS011;43322;52.230;5.702;2022-08-19T05:31:49;20.05;;;15.93;;
23718;SDS011;43322;52.230;5.702;2022-08-19T05:34:19;17.65;;;15.32;;
23718;SDS011;43322;52.230;5.702;2022-08-19T05:36:48;17.40;;;14.65;;
23718;SDS011;43322;52.230;5.702;2022-08-19T05:39:17;18.10;;;16.20;;
23718;SDS011;43322;52.230;5.702;2022-08-19T05:41:46;17.50;;;15.18;;
23718;SDS011;43322;52.230;5.702;2022-08-19T05:44:15;15.98;;;14.38;;
23718;SDS011;43322;52.230;5.702;2022-08-19T05:46:42;18.20;;;16.05;;
23718;SDS011;43322;52.230;5.702;2022-08-19T05:49:12;23.92;;;17.55;;
23718;SDS011;43322;52.230;5.702;2022-08-19T05:51:41;20.42;;;17.85;;
23718;SDS011;43322;52.230;5.702;2022-08-19T05:54:09;22.83;;;18.75;;
23718;SDS011;43322;52.230;5.702;2022-08-19T05:56:38;23.25;;;18.52;;
23718;SDS011;43322;52.230;5.702;2022-08-19T05:59:06;19.73;;;17.58;;
23718;SDS011;43322;52.230;5.702;2022-08-19T06:01:34;25.25;;;18.80;;
23718;SDS011;43322;52.230;5.702;2022-08-19T06:04:02;22.33;;;19.67;;
23718;SDS011;43322;52.230;5.702;2022-08-19T06:06:30;21.38;;;18.30;;
23718;SDS011;43322;52.230;5.702;2022-08-19T06:09:00;26.20;;;21.05;;
23718;SDS011;43322;52.230;5.702;2022-08-19T06:11:32;27.15;;;20.88;;
23718;SDS011;43322;52.230;5.702;2022-08-19T06:14:01;30.35;;;22.98;;
23718;SDS011;43322;52.230;5.702;2022-08-19T06:16:30;26.83;;;21.15;;
23718;SDS011;43322;52.230;5.702;2022-08-19T06:19:00;32.25;;;21.80;;
23718;SDS011;43322;52.230;5.702;2022-08-19T06:21:29;35.40;;;23.30;;
23718;SDS011;43322;52.230;5.702;2022-08-19T06:23:58;32.45;;;22.63;;
23718;SDS011;43322;52.230;5.702;2022-08-19T06:26:27;38.22;;;23.88;;
23718;SDS011;43322;52.230;5.702;2022-08-19T06:28:54;34.03;;;22.67;;
23718;SDS011;43322;52.230;5.702;2022-08-19T06:31:22;35.17;;;23.33;;
23718;SDS011;43322;52.230;5.702;2022-08-19T06:33:51;43.08;;;24.75;;
23718;SDS011;43322;52.230;5.702;2022-08-19T06:36:20;46.22;;;27.00;;
23718;SDS011;43322;52.230;5.702;2022-08-19T06:38:49;47.22;;;28.15;;
23718;SDS011;43322;52.230;5.702;2022-08-19T06:41:17;46.38;;;28.58;;
23718;SDS011;43322;52.230;5.702;2022-08-19T06:43:44;50.40;;;29.70;;
23718;SDS011;43322;52.230;5.702;2022-08-19T06:46:12;48.33;;;27.52;;
23718;SDS011;43322;52.230;5.702;2022-08-19T06:48:39;48.22;;;28.92;;
23718;SDS011;43322;52.230;5.702;2022-08-19T06:51:06;49.53;;;28.42;;
23718;SDS011;43322;52.230;5.702;2022-08-19T06:53:33;52.47;;;30.65;;
23718;SDS011;43322;52.230;5.702;2022-08-19T06:56:01;60.00;;;33.63;;
23718;SDS011;43322;52.230;5.702;2022-08-19T06:58:30;54.70;;;31.50;;
23718;SDS011;43322;52.230;5.702;2022-08-19T07:00:58;58.30;;;31.25;;
23718;SDS011;43322;52.230;5.702;2022-08-19T07:03:28;56.85;;;32.38;;
23718;SDS011;43322;52.230;5.702;2022-08-19T07:05:56;59.92;;;32.75;;
23718;SDS011;43322;52.230;5.702;2022-08-19T07:08:24;57.80;;;31.77;;
23718;SDS011;43322;52.230;5.702;2022-08-19T07:10:52;59.47;;;33.10;;
23718;SDS011;43322;52.230;5.702;2022-08-19T07:13:19;56.72;;;34.08;;
23718;SDS011;43322;52.230;5.702;2022-08-19T07:15:49;67.93;;;37.05;;
23718;SDS011;43322;52.230;5.702;2022-08-19T07:18:16;66.68;;;35.38;;
23718;SDS011;43322;52.230;5.702;2022-08-19T07:20:45;72.90;;;39.45;;
23718;SDS011;43322;52.230;5.702;2022-08-19T07:23:13;75.00;;;41.10;;
23718;SDS011;43322;52.230;5.702;2022-08-19T07:25:40;72.57;;;40.58;;
23718;SDS011;43322;52.230;5.702;2022-08-19T07:28:08;80.20;;;42.92;;
23718;SDS011;43322;52.230;5.702;2022-08-19T07:30:38;76.97;;;41.00;;
23718;SDS011;43322;52.230;5.702;2022-08-19T07:33:07;76.25;;;41.85;;
23718;SDS011;43322;52.230;5.702;2022-08-19T07:35:33;79.45;;;41.97;;
23718;SDS011;43322;52.230;5.702;2022-08-19T07:38:01;77.50;;;41.42;;
23718;SDS011;43322;52.230;5.702;2022-08-19T07:40:29;78.72;;;41.78;;
23718;SDS011;43322;52.230;5.702;2022-08-19T07:42:56;65.38;;;38.70;;
23718;SDS011;43322;52.230;5.702;2022-08-19T07:45:23;70.38;;;39.55;;
23718;SDS011;43322;52.230;5.702;2022-08-19T07:47:50;78.35;;;41.75;;
23718;SDS011;43322;52.230;5.702;2022-08-19T07:50:20;65.03;;;38.13;;
23718;SDS011;43322;52.230;5.702;2022-08-19T07:52:47;63.53;;;39.55;;
23718;SDS011;43322;52.230;5.702;2022-08-19T07:55:16;68.93;;;41.20;;
23718;SDS011;43322;52.230;5.702;2022-08-19T07:57:45;74.05;;;42.40;;
23718;SDS011;43322;52.230;5.702;2022-08-19T08:00:12;66.63;;;42.25;;
23718;SDS011;43322;52.230;5.702;2022-08-19T08:02:40;72.72;;;41.72;;
23718;SDS011;43322;52.230;5.702;2022-08-19T08:05:08;80.75;;;46.08;;
23718;SDS011;43322;52.230;5.702;2022-08-19T08:07:53;64.18;;;40.15;;
23718;SDS011;43322;52.230;5.702;2022-08-19T08:10:38;72.80;;;43.45;;
23718;SDS011;43322;52.230;5.702;2022-08-19T08:13:05;63.38;;;41.13;;
23718;SDS011;43322;52.230;5.702;2022-08-19T08:15:32;73.40;;;43.05;;
23718;SDS011;43322;52.230;5.702;2022-08-19T08:17:59;67.22;;;42.90;;
23718;SDS011;43322;52.230;5.702;2022-08-19T08:20:26;74.07;;;44.38;;
23718;SDS011;43322;52.230;5.702;2022-08-19T08:22:54;76.65;;;43.58;;
23718;SDS011;43322;52.230;5.702;2022-08-19T08:25:38;67.57;;;42.88;;
23718;SDS011;43322;52.230;5.702;2022-08-19T08:28:05;61.95;;;38.85;;
23718;SDS011;43322;52.230;5.702;2022-08-19T08:30:34;63.85;;;38.72;;
23718;SDS011;43322;52.230;5.702;2022-08-19T08:33:02;72.85;;;42.78;;
23718;SDS011;43322;52.230;5.702;2022-08-19T08:35:30;64.25;;;42.00;;
23718;SDS011;43322;52.230;5.702;2022-08-19T08:37:59;64.40;;;42.63;;
23718;SDS011;43322;52.230;5.702;2022-08-19T08:40:29;59.83;;;40.03;;
23718;SDS011;43322;52.230;5.702;2022-08-19T08:43:05;60.60;;;39.35;;
23718;SDS011;43322;52.230;5.702;2022-08-19T08:45:38;55.65;;;36.22;;
23718;SDS011;43322;52.230;5.702;2022-08-19T08:48:15;50.38;;;34.10;;
23718;SDS011;43322;52.230;5.702;2022-08-19T08:50:46;49.90;;;32.90;;
23718;SDS011;43322;52.230;5.702;2022-08-19T08:53:18;48.28;;;32.38;;
23718;SDS011;43322;52.230;5.702;2022-08-19T08:55:47;42.50;;;29.25;;
23718;SDS011;43322;52.230;5.702;2022-08-19T08:58:14;43.35;;;29.20;;
23718;SDS011;43322;52.230;5.702;2022-08-19T09:00:48;41.45;;;28.23;;
23718;SDS011;43322;52.230;5.702;2022-08-19T09:03:17;43.20;;;27.80;;
23718;SDS011;43322;52.230;5.702;2022-08-19T09:05:49;42.65;;;27.73;;
23718;SDS011;43322;52.230;5.702;2022-08-19T09:08:26;37.53;;;26.25;;
23718;SDS011;43322;52.230;5.702;2022-08-19T09:11:03;36.65;;;24.65;;
23718;SDS011;43322;52.230;5.702;2022-08-19T09:13:36;36.10;;;25.27;;
23718;SDS011;43322;52.230;5.702;2022-08-19T09:16:14;37.42;;;24.85;;
23718;SDS011;43322;52.230;5.702;2022-08-19T09:18:43;44.97;;;28.35;;
23718;SDS011;43322;52.230;5.702;2022-08-19T09:21:13;43.10;;;28.30;;
23718;SDS011;43322;52.230;5.702;2022-08-19T09:23:42;39.08;;;26.65;;
23718;SDS011;43322;52.230;5.702;2022-08-19T09:26:09;39.00;;;27.33;;
23718;SDS011;43322;52.230;5.702;2022-08-19T09:28:39;37.97;;;26.48;;
23718;SDS011;43322;52.230;5.702;2022-08-19T09:31:08;36.10;;;26.35;;
23718;SDS011;43322;52.230;5.702;2022-08-19T09:33:35;33.47;;;24.73;;
23718;SDS011;43322;52.230;5.702;2022-08-19T09:36:03;32.25;;;22.92;;
23718;SDS011;43322;52.230;5.702;2022-08-19T09:38:33;35.22;;;22.55;;
23718;SDS011;43322;52.230;5.702;2022-08-19T09:41:07;33.53;;;22.65;;
23718;SDS011;43322;52.230;5.702;2022-08-19T09:43:36;36.38;;;24.90;;
23718;SDS011;43322;52.230;5.702;2022-08-19T09:46:04;32.20;;;22.95;;
23718;SDS011;43322;52.230;5.702;2022-08-19T09:48:34;27.83;;;20.08;;
23718;SDS011;43322;52.230;5.702;2022-08-19T09:51:02;33.72;;;24.08;;
23718;SDS011;43322;52.230;5.702;2022-08-19T09:53:32;34.15;;;24.27;;
23718;SDS011;43322;52.230;5.702;2022-08-19T09:55:59;31.63;;;22.38;;
23718;SDS011;43322;52.230;5.702;2022-08-19T09:58:28;32.88;;;22.13;;
23718;SDS011;43322;52.230;5.702;2022-08-19T10:00:55;26.42;;;19.52;;
23718;SDS011;43322;52.230;5.702;2022-08-19T10:03:23;28.75;;;20.50;;
23718;SDS011;43322;52.230;5.702;2022-08-19T10:05:51;29.85;;;20.77;;
23718;SDS011;43322;52.230;5.702;2022-08-19T10:08:19;27.98;;;20.58;;
23718;SDS011;43322;52.230;5.702;2022-08-19T10:10:48;28.67;;;20.45;;
23718;SDS011;43322;52.230;5.702;2022-08-19T10:13:16;30.20;;;20.13;;
23718;SDS011;43322;52.230;5.702;2022-08-19T10:15:48;25.63;;;19.35;;
23718;SDS011;43322;52.230;5.702;2022-08-19T10:18:17;24.13;;;18.20;;
23718;SDS011;43322;52.230;5.702;2022-08-19T10:20:48;29.10;;;20.88;;
23718;SDS011;43322;52.230;5.702;2022-08-19T10:23:16;22.20;;;18.30;;
23718;SDS011;43322;52.230;5.702;2022-08-19T10:25:43;20.77;;;16.90;;
23718;SDS011;43322;52.230;5.702;2022-08-19T10:28:10;26.08;;;18.17;;
23718;SDS011;43322;52.230;5.702;2022-08-19T10:30:38;20.50;;;16.52;;
23718;SDS011;43322;52.230;5.702;2022-08-19T10:33:07;19.02;;;15.82;;
23718;SDS011;43322;52.230;5.702;2022-08-19T10:35:33;23.38;;;17.55;;
23718;SDS011;43322;52.230;5.702;2022-08-19T10:38:01;19.42;;;15.43;;
23718;SDS011;43322;52.230;5.702;2022-08-19T10:40:28;21.38;;;14.85;;
23718;SDS011;43322;52.230;5.702;2022-08-19T10:42:55;20.35;;;14.95;;
23718;SDS011;43322;52.230;5.702;2022-08-19T10:45:22;18.30;;;14.82;;
23718;SDS011;43322;52.230;5.702;2022-08-19T10:47:50;17.80;;;14.15;;
23718;SDS011;43322;52.230;5.702;2022-08-19T10:50:19;18.17;;;14.75;;
23718;SDS011;43322;52.230;5.702;2022-08-19T10:53:04;16.30;;;13.38;;
23718;SDS011;43322;52.230;5.702;2022-08-19T10:55:33;18.42;;;13.98;;
23718;SDS011;43322;52.230;5.702;2022-08-19T10:58:19;14.85;;;13.25;;
23718;SDS011;43322;52.230;5.702;2022-08-19T11:00:51;17.10;;;14.23;;
23718;SDS011;43322;52.230;5.702;2022-08-19T11:03:19;20.35;;;14.68;;
23718;SDS011;43322;52.230;5.702;2022-08-19T11:05:51;16.30;;;12.25;;
23718;SDS011;43322;52.230;5.702;2022-08-19T11:08:23;19.08;;;15.77;;
23718;SDS011;43322;52.230;5.702;2022-08-19T11:10:52;17.42;;;13.77;;
23718;SDS011;43322;52.230;5.702;2022-08-19T11:13:21;16.15;;;13.32;;
23718;SDS011;43322;52.230;5.702;2022-08-19T11:15:55;16.30;;;12.52;;
23718;SDS011;43322;52.230;5.702;2022-08-19T11:18:23;13.75;;;12.27;;
23718;SDS011;43322;52.230;5.702;2022-08-19T11:20:52;12.65;;;11.35;;
23718;SDS011;43322;52.230;5.702;2022-08-19T11:23:19;13.95;;;11.75;;
23718;SDS011;43322;52.230;5.702;2022-08-19T11:25:46;13.18;;;10.35;;
23718;SDS011;43322;52.230;5.702;2022-08-19T11:28:13;13.93;;;12.43;;
23718;SDS011;43322;52.230;5.702;2022-08-19T11:30:40;20.15;;;11.52;;
23718;SDS011;43322;52.230;5.702;2022-08-19T11:33:06;16.92;;;14.40;;
23718;SDS011;43322;52.230;5.702;2022-08-19T11:35:38;15.30;;;13.02;;
23718;SDS011;43322;52.230;5.702;2022-08-19T11:38:08;14.85;;;11.73;;
23718;SDS011;43322;52.230;5.702;2022-08-19T11:40:36;15.70;;;14.00;;
23718;SDS011;43322;52.230;5.702;2022-08-19T11:43:03;12.07;;;10.70;;
23718;SDS011;43322;52.230;5.702;2022-08-19T11:45:30;15.48;;;12.40;;
23718;SDS011;43322;52.230;5.702;2022-08-19T11:47:57;12.63;;;10.88;;
23718;SDS011;43322;52.230;5.702;2022-08-19T11:50:24;12.07;;;10.38;;
23718;SDS011;43322;52.230;5.702;2022-08-19T11:52:53;12.63;;;9.35;;
23718;SDS011;43322;52.230;5.702;2022-08-19T11:55:22;11.38;;;10.18;;
23718;SDS011;43322;52.230;5.702;2022-08-19T11:57:49;9.63;;;8.80;;
23718;SDS011;43322;52.230;5.702;2022-08-19T12:00:16;10.82;;;9.73;;
23718;SDS011;43322;52.230;5.702;2022-08-19T12:02:44;9.70;;;8.63;;
23718;SDS011;43322;52.230;5.702;2022-08-19T12:05:12;13.25;;;10.23;;
23718;SDS011;43322;52.230;5.702;2022-08-19T12:07:40;11.77;;;10.63;;
23718;SDS011;43322;52.230;5.702;2022-08-19T12:10:08;11.57;;;10.48;;
23718;SDS011;43322;52.230;5.702;2022-08-19T12:12:37;10.18;;;8.73;;
23718;SDS011;43322;52.230;5.702;2022-08-19T12:15:07;14.30;;;11.45;;
23718;SDS011;43322;52.230;5.702;2022-08-19T12:17:35;15.98;;;12.70;;
23718;SDS011;43322;52.230;5.702;2022-08-19T12:20:03;14.27;;;11.77;;
23718;SDS011;43322;52.230;5.702;2022-08-19T12:22:31;9.13;;;8.23;;
23718;SDS011;43322;52.230;5.702;2022-08-19T12:24:58;9.32;;;8.52;;
23718;SDS011;43322;52.230;5.702;2022-08-19T12:27:25;13.63;;;12.20;;
23718;SDS011;43322;52.230;5.702;2022-08-19T12:29:53;11.68;;;10.52;;
23718;SDS011;43322;52.230;5.702;2022-08-19T12:32:20;17.77;;;14.48;;
23718;SDS011;43322;52.230;5.702;2022-08-19T12:34:48;9.32;;;8.48;;
23718;SDS011;43322;52.230;5.702;2022-08-19T12:37:15;11.77;;;10.43;;
23718;SDS011;43322;52.230;5.702;2022-08-19T12:39:42;12.10;;;10.90;;
23718;SDS011;43322;52.230;5.702;2022-08-19T12:42:10;17.52;;;13.77;;
23718;SDS011;43322;52.230;5.702;2022-08-19T12:44:38;15.40;;;13.40;;
23718;SDS011;43322;52.230;5.702;2022-08-19T12:47:07;10.50;;;9.50;;
23718;SDS011;43322;52.230;5.702;2022-08-19T12:49:36;12.50;;;10.43;;
23718;SDS011;43322;52.230;5.702;2022-08-19T12:52:05;15.27;;;11.90;;
23718;SDS011;43322;52.230;5.702;2022-08-19T12:54:32;18.25;;;15.88;;
23718;SDS011;43322;52.230;5.702;2022-08-19T12:57:00;14.35;;;12.60;;
23718;SDS011;43322;52.230;5.702;2022-08-19T12:59:30;11.60;;;10.60;;
23718;SDS011;43322;52.230;5.702;2022-08-19T13:01:58;14.02;;;12.60;;
23718;SDS011;43322;52.230;5.702;2022-08-19T13:04:27;21.13;;;17.50;;
23718;SDS011;43322;52.230;5.702;2022-08-19T13:06:54;18.60;;;14.23;;
23718;SDS011;43322;52.230;5.702;2022-08-19T13:09:20;17.95;;;13.98;;
23718;SDS011;43322;52.230;5.702;2022-08-19T13:11:47;17.13;;;15.00;;
23718;SDS011;43322;52.230;5.702;2022-08-19T13:14:14;15.32;;;13.35;;
23718;SDS011;43322;52.230;5.702;2022-08-19T13:16:41;22.27;;;17.92;;
23718;SDS011;43322;52.230;5.702;2022-08-19T13:19:08;29.33;;;21.70;;
23718;SDS011;43322;52.230;5.702;2022-08-19T13:21:37;21.85;;;19.10;;
23718;SDS011;43322;52.230;5.702;2022-08-19T13:24:04;25.17;;;18.08;;
23718;SDS011;43322;52.230;5.702;2022-08-19T13:26:31;31.85;;;21.73;;
23718;SDS011;43322;52.230;5.702;2022-08-19T13:28:58;31.83;;;23.27;;
23718;SDS011;43322;52.230;5.702;2022-08-19T13:31:42;28.98;;;22.20;;
23718;SDS011;43322;52.230;5.702;2022-08-19T13:34:27;29.80;;;22.02;;
23718;SDS011;43322;52.230;5.702;2022-08-19T13:36:57;24.80;;;19.75;;
23718;SDS011;43322;52.230;5.702;2022-08-19T13:39:24;23.52;;;19.20;;
23718;SDS011;43322;52.230;5.702;2022-08-19T13:41:52;21.58;;;18.23;;
23718;SDS011;43322;52.230;5.702;2022-08-19T13:44:19;24.95;;;19.63;;
23718;SDS011;43322;52.230;5.702;2022-08-19T13:46:46;25.48;;;20.17;;
23718;SDS011;43322;52.230;5.702;2022-08-19T13:49:16;24.10;;;19.80;;
23718;SDS011;43322;52.230;5.702;2022-08-19T13:51:43;26.13;;;21.73;;
23718;SDS011;43322;52.230;5.702;2022-08-19T13:54:12;29.63;;;23.60;;
23718;SDS011;43322;52.230;5.702;2022-08-19T13:56:40;22.25;;;19.45;;
23718;SDS011;43322;52.230;5.702;2022-08-19T13:59:08;20.40;;;18.20;;
23718;SDS011;43322;52.230;5.702;2022-08-19T14:01:35;23.00;;;20.13;;
23718;SDS011;43322;52.230;5.702;2022-08-19T14:04:02;22.77;;;19.55;;
23718;SDS011;43322;52.230;5.702;2022-08-19T14:06:30;19.60;;;17.50;;
23718;SDS011;43322;52.230;5.702;2022-08-19T14:08:57;20.10;;;17.75;;
23718;SDS011;43322;52.230;5.702;2022-08-19T14:11:27;19.48;;;17.35;;
23718;SDS011;43322;52.230;5.702;2022-08-19T14:13:54;19.27;;;17.20;;
23718;SDS011;43322;52.230;5.702;2022-08-19T14:16:21;25.23;;;18.38;;
23718;SDS011;43322;52.230;5.702;2022-08-19T14:18:49;20.58;;;17.80;;
23718;SDS011;43322;52.230;5.702;2022-08-19T14:21:17;22.35;;;17.63;;
23718;SDS011;43322;52.230;5.702;2022-08-19T14:23:47;21.75;;;18.60;;
23718;SDS011;43322;52.230;5.702;2022-08-19T14:26:15;21.90;;;17.92;;
23718;SDS011;43322;52.230;5.702;2022-08-19T14:28:45;20.83;;;17.67;;
23718;SDS011;43322;52.230;5.702;2022-08-19T14:31:12;23.90;;;19.13;;
23718;SDS011;43322;52.230;5.702;2022-08-19T14:33:44;20.45;;;18.17;;
23718;SDS011;43322;52.230;5.702;2022-08-19T14:36:11;21.45;;;18.08;;